Irving, TX (75014)

10:04 PM CST on February 19, 2017 (GMT -0600)
Marvel Drive | | Change Station

Elev 454 ft 32.80 °N, 96.97 °W | Updated 14 seconds ago

Mostly Cloudy
Mostly Cloudy
69.6 °F
Feels Like 69.6 °F
N
2.0
Wind Variable Wind from WSW

Today
High -- | Low -- °F
--% Chance of Precip.
Yesterday
High -- | Low -- °F
Precip. -- in
Pressure 29.83 in
Visibility 7.0 miles
Clouds Scattered Clouds 1500 ft
Mostly Cloudy 25000 ft
Dew Point 65 °F
Humidity 86%
Rainfall 0.00 in
Snow Depth Not available.
7:06 AM 6:17 PM
Last Quarter, 37% visible
METAR KDAL 200353Z 14015KT 7SM SCT015 BKN250 21/18 A2985 RMK AO2 SLP102 SCT015 V BKN T02110183
Pressure 29.83 in
Visibility 7.0 miles
Clouds Scattered Clouds 1500 ft
Mostly Cloudy 25000 ft
Dew Point 65 °F
Humidity 86%
Rainfall 0.00 in
Snow Depth Not available.
7:06 AM 6:17 PM
Last Quarter, 37% visible
METAR KDAL 200353Z 14015KT 7SM SCT015 BKN250 21/18 A2985 RMK AO2 SLP102 SCT015 V BKN T02110183

Get Your Daily Forecast Email!

Thanks for signing up!

Be on the lookout for a verification email in your inbox.

You'll start receiving the daily forecast at 8 AM.

×

10-Day Weather Forecast

Almanac

Astronomy

Feb. 19, 2017 Rise Set
Actual Time
Civil Twilight
Nautical Twilight
Astronomical Twilight
Moon
Length of Visible Light
Length of Day
Tomorrow will be .
, % of the Moon is Illuminated

Today's Extremes

State Highs State Lows

Community

WunderPhotos

Upload Photos

1,962,540 photos uploaded!

WunderBlog® & News

Nearby

Air Quality

  Air Quality AQ Index Pollutant
Not available.

Snow Depth

Station Depth Elevation

Earthquake Activity

City Distance Mag. Time & Date
Minimum magnitude displayed is 2.5.

Coastal Water Temperatures

Place Temperature

Stations

Nearby Weather Stations

Station Location Temp. Windchill Dew Point Humidity Wind Precip. Elev Updated Type
                   

Watches & Warnings

There are currently no watches in effect.